sensor_id;sensor_type;location;lat;lon;timestamp;pressure;altitude;pressure_sealevel;temperature;humidity
50770;BME280;36740;48.698;11.472;2024-03-25T07:14:14;96645.81;;;6.21;79.18
50770;BME280;36740;48.698;11.472;2024-03-25T07:17:03;96661.94;;;6.61;75.26
50770;BME280;36740;48.698;11.472;2024-03-25T07:19:49;96679.63;;;6.43;76.93
50770;BME280;36740;48.698;11.472;2024-03-25T07:22:35;96666.94;;;6.02;77.55
50770;BME280;36740;48.698;11.472;2024-03-25T07:25:21;96668.75;;;5.60;78.42
50770;BME280;36740;48.698;11.472;2024-03-25T07:28:07;96661.66;;;5.11;79.80
50770;BME280;36740;48.698;11.472;2024-03-25T07:30:53;96672.72;;;5.22;81.12
50770;BME280;36740;48.698;11.472;2024-03-25T07:33:39;96666.50;;;5.14;81.33
50770;BME280;36740;48.698;11.472;2024-03-25T07:36:25;96683.00;;;5.20;82.07
50770;BME280;36740;48.698;11.472;2024-03-25T07:39:11;96682.50;;;5.05;81.92
50770;BME280;36740;48.698;11.472;2024-03-25T07:41:56;96681.63;;;5.16;82.00
50770;BME280;36740;48.698;11.472;2024-03-25T07:44:42;96687.03;;;5.02;82.10
50770;BME280;36740;48.698;11.472;2024-03-25T07:47:28;96684.41;;;4.92;83.01
50770;BME280;36740;48.698;11.472;2024-03-25T07:50:13;96701.94;;;5.16;82.49
50770;BME280;36740;48.698;11.472;2024-03-25T07:53:00;96695.75;;;5.30;81.91
50770;BME280;36740;48.698;11.472;2024-03-25T07:55:46;96703.13;;;6.06;79.80
50770;BME280;36740;48.698;11.472;2024-03-25T07:58:31;96696.22;;;6.27;77.92
50770;BME280;36740;48.698;11.472;2024-03-25T08:01:17;96701.34;;;6.47;77.45
50770;BME280;36740;48.698;11.472;2024-03-25T08:04:03;96696.94;;;6.49;76.67
50770;BME280;36740;48.698;11.472;2024-03-25T08:06:49;96695.06;;;7.29;74.89
50770;BME280;36740;48.698;11.472;2024-03-25T08:09:34;96689.19;;;8.32;70.67
50770;BME280;36740;48.698;11.472;2024-03-25T08:12:20;96696.31;;;10.82;64.65
50770;BME280;36740;48.698;11.472;2024-03-25T08:15:06;96650.91;;;9.56;63.57
50770;BME280;36740;48.698;11.472;2024-03-25T08:17:53;96643.94;;;10.17;59.90
50770;BME280;36740;48.698;11.472;2024-03-25T08:20:39;96655.97;;;9.48;63.79
50770;BME280;36740;48.698;11.472;2024-03-25T08:23:25;96669.63;;;8.86;65.97
50770;BME280;36740;48.698;11.472;2024-03-25T08:26:11;96650.63;;;10.02;61.10
50770;BME280;36740;48.698;11.472;2024-03-25T08:28:56;96673.16;;;11.72;58.46
50770;BME280;36740;48.698;11.472;2024-03-25T08:31:42;96622.28;;;10.95;56.34
50770;BME280;36740;48.698;11.472;2024-03-25T08:34:28;96638.75;;;11.98;54.13
50770;BME280;36740;48.698;11.472;2024-03-25T08:37:14;96611.94;;;11.92;53.71
50770;BME280;36740;48.698;11.472;2024-03-25T08:39:59;96605.03;;;12.01;51.97
50770;BME280;36740;48.698;11.472;2024-03-25T08:42:45;96588.31;;;10.93;54.24
50770;BME280;36740;48.698;11.472;2024-03-25T08:45:31;96586.34;;;11.12;53.12
50770;BME280;36740;48.698;11.472;2024-03-25T08:48:16;96599.59;;;11.32;53.43
50770;BME280;36740;48.698;11.472;2024-03-25T08:51:02;96608.81;;;10.77;54.92
50770;BME280;36740;48.698;11.472;2024-03-25T08:53:49;96610.75;;;11.64;52.68
50770;BME280;36740;48.698;11.472;2024-03-25T08:56:35;96618.63;;;12.10;51.95
50770;BME280;36740;48.698;11.472;2024-03-25T08:59:21;96602.53;;;12.16;52.42
50770;BME280;36740;48.698;11.472;2024-03-25T09:02:07;96581.31;;;11.35;51.64
50770;BME280;36740;48.698;11.472;2024-03-25T09:04:53;96565.34;;;10.18;53.96
50770;BME280;36740;48.698;11.472;2024-03-25T09:07:39;96605.28;;;9.86;57.14
50770;BME280;36740;48.698;11.472;2024-03-25T09:10:25;96612.75;;;11.45;52.88
50770;BME280;36740;48.698;11.472;2024-03-25T09:13:34;96589.84;;;11.35;53.27
50770;BME280;36740;48.698;11.472;2024-03-25T09:16:19;96570.69;;;10.41;53.73
50770;BME280;36740;48.698;11.472;2024-03-25T09:19:05;96581.91;;;10.56;54.49
50770;BME280;36740;48.698;11.472;2024-03-25T09:21:53;96593.88;;;11.21;54.16
50770;BME280;36740;48.698;11.472;2024-03-25T09:24:39;96566.47;;;10.23;55.79
50770;BME280;36740;48.698;11.472;2024-03-25T09:27:27;96597.41;;;11.76;52.23
50770;BME280;36740;48.698;11.472;2024-03-25T09:30:13;96588.38;;;12.43;50.58
50770;BME280;36740;48.698;11.472;2024-03-25T09:33:02;96572.66;;;12.15;50.27
50770;BME280;36740;48.698;11.472;2024-03-25T09:35:53;96552.91;;;12.15;48.95
50770;BME280;36740;48.698;11.472;2024-03-25T09:38:51;96547.59;;;12.40;47.95
50770;BME280;36740;48.698;11.472;2024-03-25T09:41:43;96534.16;;;11.75;49.07
50770;BME280;36740;48.698;11.472;2024-03-25T09:44:35;96531.69;;;11.51;49.40
50770;BME280;36740;48.698;11.472;2024-03-25T09:47:29;96543.00;;;11.25;50.12
50770;BME280;36740;48.698;11.472;2024-03-25T09:50:15;96547.06;;;11.98;48.74
50770;BME280;36740;48.698;11.472;2024-03-25T09:53:04;96542.97;;;11.73;50.21
50770;BME280;36740;48.698;11.472;2024-03-25T09:55:57;96525.94;;;11.49;48.88
50770;BME280;36740;48.698;11.472;2024-03-25T09:58:45;96504.16;;;10.80;50.42
50770;BME280;36740;48.698;11.472;2024-03-25T10:01:31;96554.94;;;11.57;50.57
50770;BME280;36740;48.698;11.472;2024-03-25T10:04:17;96540.06;;;11.44;51.08
50770;BME280;36740;48.698;11.472;2024-03-25T10:07:03;96496.06;;;10.36;50.11
50770;BME280;36740;48.698;11.472;2024-03-25T10:09:50;96523.19;;;11.58;49.02
50770;BME280;36740;48.698;11.472;2024-03-25T10:12:36;96492.59;;;11.01;50.32
50770;BME280;36740;48.698;11.472;2024-03-25T10:15:22;96504.00;;;10.82;51.16
50770;BME280;36740;48.698;11.472;2024-03-25T10:18:11;96521.94;;;10.98;51.33
50770;BME280;36740;48.698;11.472;2024-03-25T10:20:57;96494.16;;;11.50;47.79
50770;BME280;36740;48.698;11.472;2024-03-25T10:23:43;96505.63;;;12.02;47.00
50770;BME280;36740;48.698;11.472;2024-03-25T10:26:39;96496.75;;;12.27;46.88
50770;BME280;36740;48.698;11.472;2024-03-25T10:29:38;96520.13;;;12.41;48.77
50770;BME280;36740;48.698;11.472;2024-03-25T10:32:24;96510.53;;;12.72;47.96
50770;BME280;36740;48.698;11.472;2024-03-25T10:35:14;96503.88;;;13.08;46.09
50770;BME280;36740;48.698;11.472;2024-03-25T10:38:10;96482.00;;;11.43;46.42
50770;BME280;36740;48.698;11.472;2024-03-25T10:40:57;96485.53;;;11.03;47.97
50770;BME280;36740;48.698;11.472;2024-03-25T10:43:47;96490.16;;;11.16;47.95
50770;BME280;36740;48.698;11.472;2024-03-25T10:46:38;96485.63;;;12.12;46.70
50770;BME280;36740;48.698;11.472;2024-03-25T10:49:33;96466.78;;;11.73;46.11
50770;BME280;36740;48.698;11.472;2024-03-25T10:52:20;96472.75;;;11.97;46.32
50770;BME280;36740;48.698;11.472;2024-03-25T10:55:08;96489.00;;;12.50;45.72
50770;BME280;36740;48.698;11.472;2024-03-25T10:57:58;96466.03;;;12.11;45.85
50770;BME280;36740;48.698;11.472;2024-03-25T11:00:45;96474.41;;;12.66;46.02
50770;BME280;36740;48.698;11.472;2024-03-25T11:03:32;96439.63;;;12.55;42.58
50770;BME280;36740;48.698;11.472;2024-03-25T11:06:19;96448.97;;;12.56;41.99
50770;BME280;36740;48.698;11.472;2024-03-25T11:09:07;96434.75;;;12.75;41.82
50770;BME280;36740;48.698;11.472;2024-03-25T11:11:53;96434.75;;;13.35;40.09
50770;BME280;36740;48.698;11.472;2024-03-25T11:14:39;96435.81;;;13.25;41.96
50770;BME280;36740;48.698;11.472;2024-03-25T11:17:25;96449.44;;;13.77;41.56
50770;BME280;36740;48.698;11.472;2024-03-25T11:20:12;96422.94;;;13.25;41.29
50770;BME280;36740;48.698;11.472;2024-03-25T11:23:08;96413.50;;;13.48;39.90
50770;BME280;36740;48.698;11.472;2024-03-25T11:25:55;96380.84;;;12.52;40.39
50770;BME280;36740;48.698;11.472;2024-03-25T11:28:42;96369.03;;;11.98;41.08
50770;BME280;36740;48.698;11.472;2024-03-25T11:31:29;96385.28;;;12.43;41.06
50770;BME280;36740;48.698;11.472;2024-03-25T11:34:04;96395.53;;;13.03;40.27
50770;BME280;36740;48.698;11.472;2024-03-25T11:36:29;96399.69;;;13.34;40.22
50770;BME280;36740;48.698;11.472;2024-03-25T11:39:03;96377.56;;;12.88;39.96
50770;BME280;36740;48.698;11.472;2024-03-25T11:41:33;96370.38;;;12.83;39.00
50770;BME280;36740;48.698;11.472;2024-03-25T11:44:00;96338.03;;;11.76;40.24
50770;BME280;36740;48.698;11.472;2024-03-25T11:46:25;96378.72;;;13.00;39.89
50770;BME280;36740;48.698;11.472;2024-03-25T11:48:52;96347.22;;;12.83;39.12
50770;BME280;36740;48.698;11.472;2024-03-25T11:51:18;96399.16;;;14.31;39.31
50770;BME280;36740;48.698;11.472;2024-03-25T11:53:43;96393.84;;;14.40;39.92
50770;BME280;36740;48.698;11.472;2024-03-25T11:56:10;96407.03;;;14.86;40.68
50770;BME280;36740;48.698;11.472;2024-03-25T11:58:36;96390.94;;;14.49;40.80
50770;BME280;36740;48.698;11.472;2024-03-25T12:01:01;96370.44;;;14.69;38.99
50770;BME280;36740;48.698;11.472;2024-03-25T12:03:27;96346.94;;;13.94;39.92
50770;BME280;36740;48.698;11.472;2024-03-25T12:05:53;96326.88;;;13.03;40.49
50770;BME280;36740;48.698;11.472;2024-03-25T12:08:18;96327.22;;;13.15;40.80
50770;BME280;36740;48.698;11.472;2024-03-25T12:10:44;96348.03;;;13.20;43.10
50770;BME280;36740;48.698;11.472;2024-03-25T12:13:28;96352.09;;;13.94;41.03
50770;BME280;36740;48.698;11.472;2024-03-25T12:15:53;96357.69;;;14.33;39.92
50770;BME280;36740;48.698;11.472;2024-03-25T12:18:20;96339.09;;;14.72;37.98
50770;BME280;36740;48.698;11.472;2024-03-25T12:20:46;96323.16;;;13.99;39.37
50770;BME280;36740;48.698;11.472;2024-03-25T12:23:11;96317.03;;;12.56;41.86
50770;BME280;36740;48.698;11.472;2024-03-25T12:25:55;96361.00;;;13.92;41.71
50770;BME280;36740;48.698;11.472;2024-03-25T12:28:44;96353.16;;;14.35;40.93
50770;BME280;36740;48.698;11.472;2024-03-25T12:31:30;96346.53;;;14.19;41.55
50770;BME280;36740;48.698;11.472;2024-03-25T12:34:16;96314.59;;;13.92;39.04
50770;BME280;36740;48.698;11.472;2024-03-25T12:37:03;96283.66;;;12.77;40.18
50770;BME280;36740;48.698;11.472;2024-03-25T12:39:51;96313.25;;;13.46;39.94
50770;BME280;36740;48.698;11.472;2024-03-25T12:42:37;96299.34;;;13.40;39.97
50770;BME280;36740;48.698;11.472;2024-03-25T12:45:26;96293.97;;;14.20;37.80
50770;BME280;36740;48.698;11.472;2024-03-25T12:48:12;96298.16;;;14.63;36.74
50770;BME280;36740;48.698;11.472;2024-03-25T12:50:58;96272.16;;;13.59;38.35
50770;BME280;36740;48.698;11.472;2024-03-25T12:53:44;96294.38;;;14.24;38.83
50770;BME280;36740;48.698;11.472;2024-03-25T12:56:29;96283.97;;;14.87;36.46
50770;BME280;36740;48.698;11.472;2024-03-25T12:59:15;96272.94;;;15.33;35.30
50770;BME280;36740;48.698;11.472;2024-03-25T13:02:01;96264.38;;;15.33;35.37
50770;BME280;36740;48.698;11.472;2024-03-25T13:04:47;96255.78;;;14.92;35.91
50770;BME280;36740;48.698;11.472;2024-03-25T13:07:33;96237.59;;;14.10;36.88
50770;BME280;36740;48.698;11.472;2024-03-25T13:10:19;96286.91;;;14.00;39.75
50770;BME280;36740;48.698;11.472;2024-03-25T13:13:05;96262.66;;;14.23;37.88
50770;BME280;36740;48.698;11.472;2024-03-25T13:15:51;96249.09;;;14.49;37.06
50770;BME280;36740;48.698;11.472;2024-03-25T13:18:37;96255.72;;;14.65;36.91
50770;BME280;36740;48.698;11.472;2024-03-25T13:21:22;96229.78;;;14.80;34.38
50770;BME280;36740;48.698;11.472;2024-03-25T13:24:10;96169.13;;;13.31;34.28
50770;BME280;36740;48.698;11.472;2024-03-25T13:26:56;96229.13;;;14.23;35.75
50770;BME280;36740;48.698;11.472;2024-03-25T13:29:42;96222.16;;;14.59;34.83
50770;BME280;36740;48.698;11.472;2024-03-25T13:32:27;96208.16;;;14.33;35.88
50770;BME280;36740;48.698;11.472;2024-03-25T13:35:13;96215.09;;;15.07;35.23
50770;BME280;36740;48.698;11.472;2024-03-25T13:37:59;96150.78;;;13.69;34.56
50770;BME280;36740;48.698;11.472;2024-03-25T13:40:45;96186.72;;;13.84;35.80
50770;BME280;36740;48.698;11.472;2024-03-25T13:43:30;96184.53;;;14.23;34.55
50770;BME280;36740;48.698;11.472;2024-03-25T13:46:16;96160.53;;;13.80;35.30
50770;BME280;36740;48.698;11.472;2024-03-25T13:49:02;96165.59;;;14.57;34.42
50770;BME280;36740;48.698;11.472;2024-03-25T13:51:48;96153.47;;;14.44;34.46
50770;BME280;36740;48.698;11.472;2024-03-25T13:54:34;96180.38;;;15.17;34.33
50770;BME280;36740;48.698;11.472;2024-03-25T13:57:19;96169.81;;;15.52;33.83
50770;BME280;36740;48.698;11.472;2024-03-25T14:00:06;96130.69;;;14.61;33.32
50770;BME280;36740;48.698;11.472;2024-03-25T14:02:55;96123.97;;;14.05;34.83
50770;BME280;36740;48.698;11.472;2024-03-25T14:05:41;96124.88;;;13.84;35.67
50770;BME280;36740;48.698;11.472;2024-03-25T14:08:27;96169.22;;;15.43;35.59
50770;BME280;36740;48.698;11.472;2024-03-25T14:11:12;96110.00;;;14.41;35.25
50770;BME280;36740;48.698;11.472;2024-03-25T14:13:58;96137.13;;;14.24;37.12
50770;BME280;36740;48.698;11.472;2024-03-25T14:16:44;96113.69;;;14.12;35.55
50770;BME280;36740;48.698;11.472;2024-03-25T14:19:29;96113.84;;;14.79;34.45
50770;BME280;36740;48.698;11.472;2024-03-25T14:22:15;96116.19;;;15.27;33.32
50770;BME280;36740;48.698;11.472;2024-03-25T14:25:01;96096.50;;;14.32;35.04
50770;BME280;36740;48.698;11.472;2024-03-25T14:27:47;96047.06;;;13.12;34.91
50770;BME280;36740;48.698;11.472;2024-03-25T14:30:32;96065.75;;;12.93;36.55
50770;BME280;36740;48.698;11.472;2024-03-25T14:33:18;96112.84;;;14.60;35.86
50770;BME280;36740;48.698;11.472;2024-03-25T14:36:04;96074.59;;;13.88;34.41
50770;BME280;36740;48.698;11.472;2024-03-25T14:38:50;96081.00;;;13.57;35.25
50770;BME280;36740;48.698;11.472;2024-03-25T14:41:39;96084.72;;;13.96;33.92
50770;BME280;36740;48.698;11.472;2024-03-25T14:44:25;96026.63;;;12.04;34.96
50770;BME280;36740;48.698;11.472;2024-03-25T14:47:11;96072.63;;;13.14;36.08
50770;BME280;36740;48.698;11.472;2024-03-25T14:49:57;96055.47;;;11.85;37.04
50770;BME280;36740;48.698;11.472;2024-03-25T14:52:43;96048.09;;;11.60;38.50
50770;BME280;36740;48.698;11.472;2024-03-25T14:55:29;96072.50;;;12.07;37.32
50770;BME280;36740;48.698;11.472;2024-03-25T14:58:15;96085.75;;;13.25;36.15
50770;BME280;36740;48.698;11.472;2024-03-25T15:01:01;96084.91;;;13.95;35.99
50770;BME280;36740;48.698;11.472;2024-03-25T15:03:47;96065.53;;;13.57;36.23
50770;BME280;36740;48.698;11.472;2024-03-25T15:06:32;96087.25;;;14.91;35.78
50770;BME280;36740;48.698;11.472;2024-03-25T15:09:18;96065.00;;;14.97;33.90
50770;BME280;36740;48.698;11.472;2024-03-25T15:12:05;96060.84;;;14.63;34.92
50770;BME280;36740;48.698;11.472;2024-03-25T15:14:50;96023.84;;;13.89;35.10
50770;BME280;36740;48.698;11.472;2024-03-25T15:17:36;96001.72;;;11.32;37.88
50770;BME280;36740;48.698;11.472;2024-03-25T15:20:22;96060.78;;;13.26;38.16
50770;BME280;36740;48.698;11.472;2024-03-25T15:23:08;96042.34;;;13.57;37.33
50770;BME280;36740;48.698;11.472;2024-03-25T15:25:53;96026.41;;;13.34;36.18
50770;BME280;36740;48.698;11.472;2024-03-25T15:28:40;96028.69;;;13.57;36.28
50770;BME280;36740;48.698;11.472;2024-03-25T15:31:26;96001.13;;;12.46;37.11
50770;BME280;36740;48.698;11.472;2024-03-25T15:34:11;96022.13;;;13.48;36.93
50770;BME280;36740;48.698;11.472;2024-03-25T15:36:57;96005.19;;;13.25;35.87
50770;BME280;36740;48.698;11.472;2024-03-25T15:39:43;96026.88;;;13.51;38.30
50770;BME280;36740;48.698;11.472;2024-03-25T15:42:28;95985.78;;;13.29;36.56
50770;BME280;36740;48.698;11.472;2024-03-25T15:45:14;96000.03;;;12.62;38.75
50770;BME280;36740;48.698;11.472;2024-03-25T15:48:00;95942.94;;;11.52;38.01
50770;BME280;36740;48.698;11.472;2024-03-25T15:50:48;95991.03;;;12.44;39.08
50770;BME280;36740;48.698;11.472;2024-03-25T15:53:33;95944.25;;;12.06;37.09
50770;BME280;36740;48.698;11.472;2024-03-25T15:56:19;95959.22;;;12.24;37.54
50770;BME280;36740;48.698;11.472;2024-03-25T15:59:05;95916.16;;;10.73;37.84
50770;BME280;36740;48.698;11.472;2024-03-25T16:01:51;95956.22;;;11.77;39.16
50770;BME280;36740;48.698;11.472;2024-03-25T16:04:37;95962.34;;;12.19;38.70
50770;BME280;36740;48.698;11.472;2024-03-25T16:07:25;95976.03;;;11.98;39.59
50770;BME280;36740;48.698;11.472;2024-03-25T16:10:11;95948.19;;;11.43;39.79
50770;BME280;36740;48.698;11.472;2024-03-25T16:12:58;95953.59;;;11.34;40.77
50770;BME280;36740;48.698;11.472;2024-03-25T16:15:44;95963.34;;;11.38;41.46
50770;BME280;36740;48.698;11.472;2024-03-25T16:18:30;95881.00;;;10.67;41.36
50770;BME280;36740;48.698;11.472;2024-03-25T16:21:17;95914.56;;;10.57;41.20
50770;BME280;36740;48.698;11.472;2024-03-25T16:24:06;95953.97;;;11.31;41.15
50770;BME280;36740;48.698;11.472;2024-03-25T16:26:53;95962.63;;;11.66;41.52
50770;BME280;36740;48.698;11.472;2024-03-25T16:29:39;95955.84;;;11.58;42.42
50770;BME280;36740;48.698;11.472;2024-03-25T16:32:35;95930.38;;;11.20;43.59
50770;BME280;36740;48.698;11.472;2024-03-25T16:35:21;95938.25;;;11.04;41.49
50770;BME280;36740;48.698;11.472;2024-03-25T16:38:07;95910.88;;;10.75;40.62
50770;BME280;36740;48.698;11.472;2024-03-25T16:40:53;95900.09;;;10.64;40.81
50770;BME280;36740;48.698;11.472;2024-03-25T16:43:39;95919.34;;;10.90;41.23
50770;BME280;36740;48.698;11.472;2024-03-25T16:46:25;95937.91;;;10.92;42.42
50770;BME280;36740;48.698;11.472;2024-03-25T16:49:12;95946.84;;;10.96;42.39
50770;BME280;36740;48.698;11.472;2024-03-25T16:52:01;95920.84;;;10.55;41.73
50770;BME280;36740;48.698;11.472;2024-03-25T16:54:49;95918.72;;;10.58;41.55
50770;BME280;36740;48.698;11.472;2024-03-25T16:57:35;95884.91;;;9.72;42.53
50770;BME280;36740;48.698;11.472;2024-03-25T17:00:21;95930.00;;;10.34;43.55
50770;BME280;36740;48.698;11.472;2024-03-25T17:03:07;95920.25;;;10.29;43.20
50770;BME280;36740;48.698;11.472;2024-03-25T17:05:53;95935.50;;;10.46;43.50
50770;BME280;36740;48.698;11.472;2024-03-25T17:08:39;95941.72;;;10.51;44.68
50770;BME280;36740;48.698;11.472;2024-03-25T17:11:25;95945.47;;;10.41;45.05
50770;BME280;36740;48.698;11.472;2024-03-25T17:14:11;95935.53;;;10.23;45.46
50770;BME280;36740;48.698;11.472;2024-03-25T17:16:57;95946.41;;;10.25;46.86
50770;BME280;36740;48.698;11.472;2024-03-25T17:19:46;95945.28;;;10.04;47.45
50770;BME280;36740;48.698;11.472;2024-03-25T17:22:33;95944.97;;;9.84;48.60
50770;BME280;36740;48.698;11.472;2024-03-25T17:25:19;95948.19;;;9.78;47.93
50770;BME280;36740;48.698;11.472;2024-03-25T17:28:04;95933.91;;;9.37;48.55
50770;BME280;36740;48.698;11.472;2024-03-25T17:30:50;95941.78;;;9.59;49.14
50770;BME280;36740;48.698;11.472;2024-03-25T17:33:36;95940.97;;;9.58;49.70
50770;BME280;36740;48.698;11.472;2024-03-25T17:36:22;95935.56;;;9.53;49.37
50770;BME280;36740;48.698;11.472;2024-03-25T17:39:08;95927.97;;;9.37;49.55
50770;BME280;36740;48.698;11.472;2024-03-25T17:41:55;95922.63;;;9.23;49.58
50770;BME280;36740;48.698;11.472;2024-03-25T17:44:42;95911.88;;;8.97;50.42
50770;BME280;36740;48.698;11.472;2024-03-25T17:47:28;95922.06;;;9.05;50.78
50770;BME280;36740;48.698;11.472;2024-03-25T17:50:13;95913.50;;;8.90;50.45
50770;BME280;36740;48.698;11.472;2024-03-25T17:53:07;95913.91;;;8.70;51.51
50770;BME280;36740;48.698;11.472;2024-03-25T17:55:54;95933.72;;;8.68;50.97
50770;BME280;36740;48.698;11.472;2024-03-25T17:58:20;95942.50;;;8.65;51.20
50770;BME280;36740;48.698;11.472;2024-03-25T18:00:49;95944.91;;;8.51;52.13
50770;BME280;36740;48.698;11.472;2024-03-25T18:03:17;95934.84;;;8.41;52.65
50770;BME280;36740;48.698;11.472;2024-03-25T18:05:51;95949.38;;;8.40;52.93
50770;BME280;36740;48.698;11.472;2024-03-25T18:08:16;95946.69;;;8.25;53.64
50770;BME280;36740;48.698;11.472;2024-03-25T18:10:42;95933.78;;;8.10;54.36
50770;BME280;36740;48.698;11.472;2024-03-25T18:13:12;95934.41;;;8.04;54.18
50770;BME280;36740;48.698;11.472;2024-03-25T18:15:51;95936.50;;;7.92;54.72
50770;BME280;36740;48.698;11.472;2024-03-25T18:18:18;95956.25;;;7.74;55.33
50770;BME280;36740;48.698;11.472;2024-03-25T18:20:44;95933.72;;;7.36;55.52
50770;BME280;36740;48.698;11.472;2024-03-25T18:23:10;95926.81;;;7.20;55.20
50770;BME280;36740;48.698;11.472;2024-03-25T18:25:39;95925.25;;;7.28;55.49
50770;BME280;36740;48.698;11.472;2024-03-25T18:28:05;95930.00;;;7.14;56.42
50770;BME280;36740;48.698;11.472;2024-03-25T18:30:32;95941.19;;;7.38;55.80
50770;BME280;36740;48.698;11.472;2024-03-25T18:32:58;95936.19;;;7.12;56.14
50770;BME280;36740;48.698;11.472;2024-03-25T18:35:25;95946.72;;;7.25;55.94
50770;BME280;36740;48.698;11.472;2024-03-25T18:37:50;95947.34;;;7.19;56.33
50770;BME280;36740;48.698;11.472;2024-03-25T18:40:16;95940.47;;;7.03;56.90
50770;BME280;36740;48.698;11.472;2024-03-25T18:42:43;95934.22;;;6.97;56.94
50770;BME280;36740;48.698;11.472;2024-03-25T18:45:10;95934.47;;;6.86;57.63
50770;BME280;36740;48.698;11.472;2024-03-25T18:47:38;95937.09;;;7.03;57.18
50770;BME280;36740;48.698;11.472;2024-03-25T18:50:04;95938.38;;;6.98;57.71
50770;BME280;36740;48.698;11.472;2024-03-25T18:52:30;95954.38;;;6.82;58.39
50770;BME280;36740;48.698;11.472;2024-03-25T18:54:55;95953.28;;;6.85;58.37
50770;BME280;36740;48.698;11.472;2024-03-25T18:57:21;95955.97;;;6.83;58.62
50770;BME280;36740;48.698;11.472;2024-03-25T18:59:46;95951.03;;;6.82;58.66
50770;BME280;36740;48.698;11.472;2024-03-25T19:02:12;95967.78;;;6.93;58.73
50770;BME280;36740;48.698;11.472;2024-03-25T19:04:37;95971.59;;;6.89;59.33
50770;BME280;36740;48.698;11.472;2024-03-25T19:07:03;95970.44;;;6.75;59.94
50770;BME280;36740;48.698;11.472;2024-03-25T19:09:28;95949.91;;;6.24;60.59
50770;BME280;36740;48.698;11.472;2024-03-25T19:11:53;95961.59;;;6.17;62.56
50770;BME280;36740;48.698;11.472;2024-03-25T19:14:19;95966.09;;;6.41;63.17
50770;BME280;36740;48.698;11.472;2024-03-25T19:16:44;95953.75;;;6.28;62.85
50770;BME280;36740;48.698;11.472;2024-03-25T19:19:10;95950.91;;;6.31;62.97
50770;BME280;36740;48.698;11.472;2024-03-25T19:21:35;95949.84;;;6.16;63.36
50770;BME280;36740;48.698;11.472;2024-03-25T19:24:01;95941.72;;;6.12;63.22
50770;BME280;36740;48.698;11.472;2024-03-25T19:26:26;95951.50;;;6.07;63.55
50770;BME280;36740;48.698;11.472;2024-03-25T19:28:52;95948.09;;;6.16;63.53
50770;BME280;36740;48.698;11.472;2024-03-25T19:31:17;95954.38;;;6.04;63.55
50770;BME280;36740;48.698;11.472;2024-03-25T19:33:43;95938.72;;;5.99;63.80
50770;BME280;36740;48.698;11.472;2024-03-25T19:36:10;95943.09;;;6.06;63.76
50770;BME280;36740;48.698;11.472;2024-03-25T19:38:36;95939.88;;;5.86;63.48
50770;BME280;36740;48.698;11.472;2024-03-25T19:41:01;95930.44;;;5.61;64.75
50770;BME280;36740;48.698;11.472;2024-03-25T19:43:27;95930.28;;;5.80;64.45
50770;BME280;36740;48.698;11.472;2024-03-25T19:45:52;95907.75;;;5.13;66.08
50770;BME280;36740;48.698;11.472;2024-03-25T19:48:18;95926.88;;;5.53;64.69
50770;BME280;36740;48.698;11.472;2024-03-25T19:50:44;95926.69;;;5.19;65.29
50770;BME280;36740;48.698;11.472;2024-03-25T19:53:10;95936.13;;;5.54;64.66
50770;BME280;36740;48.698;11.472;2024-03-25T19:55:36;95927.69;;;5.54;64.27
50770;BME280;36740;48.698;11.472;2024-03-25T19:58:01;95931.16;;;5.35;64.98
50770;BME280;36740;48.698;11.472;2024-03-25T20:00:27;95941.34;;;5.53;65.16
50770;BME280;36740;48.698;11.472;2024-03-25T20:02:53;95932.69;;;5.64;65.36
50770;BME280;36740;48.698;11.472;2024-03-25T20:05:22;95923.66;;;5.15;66.19
50770;BME280;36740;48.698;11.472;2024-03-25T20:07:48;95934.16;;;5.48;66.41
50770;BME280;36740;48.698;11.472;2024-03-25T20:10:13;95942.84;;;5.46;66.01
50770;BME280;36740;48.698;11.472;2024-03-25T20:12:38;95930.81;;;5.48;66.15
50770;BME280;36740;48.698;11.472;2024-03-25T20:15:04;95927.59;;;5.46;66.00
50770;BME280;36740;48.698;11.472;2024-03-25T20:17:30;95913.88;;;5.39;66.46
50770;BME280;36740;48.698;11.472;2024-03-25T20:20:06;95937.91;;;5.44;66.80
50770;BME280;36740;48.698;11.472;2024-03-25T20:22:58;95886.38;;;5.06;67.15
50770;BME280;36740;48.698;11.472;2024-03-25T20:28:55;95894.66;;;4.90;68.29
50770;BME280;36740;48.698;11.472;2024-03-25T20:32:16;95946.75;;;5.22;69.08
50770;BME280;36740;48.698;11.472;2024-03-25T20:41:50;95889.72;;;4.89;69.11
50770;BME280;36740;48.698;11.472;2024-03-25T20:44:28;95888.97;;;4.78;68.67
50770;BME280;36740;48.698;11.472;2024-03-25T20:50:46;95875.66;;;4.57;69.50
50770;BME280;36740;48.698;11.472;2024-03-25T20:53:44;95911.13;;;4.76;70.16
50770;BME280;36740;48.698;11.472;2024-03-25T20:56:48;95925.44;;;5.05;69.69
50770;BME280;36740;48.698;11.472;2024-03-25T21:03:40;95837.28;;;4.04;71.62
50770;BME280;36740;48.698;11.472;2024-03-25T21:06:42;95876.66;;;4.46;71.72
50770;BME280;36740;48.698;11.472;2024-03-25T21:13:29;95902.59;;;4.77;70.78
50770;BME280;36740;48.698;11.472;2024-03-25T21:20:17;95897.31;;;4.61;71.15
50770;BME280;36740;48.698;11.472;2024-03-25T21:22:51;95822.28;;;4.21;70.71
50770;BME280;36740;48.698;11.472;2024-03-25T21:25:22;95801.50;;;3.60;72.05
50770;BME280;36740;48.698;11.472;2024-03-25T21:27:53;95894.25;;;4.10;74.56
50770;BME280;36740;48.698;11.472;2024-03-25T21:34:15;95888.63;;;4.26;73.87
50770;BME280;36740;48.698;11.472;2024-03-25T21:36:43;95786.03;;;2.66;77.01
50770;BME280;36740;48.698;11.472;2024-03-25T21:39:17;95848.31;;;3.37;77.18
50770;BME280;36740;48.698;11.472;2024-03-25T21:41:57;95814.81;;;2.74;78.08
50770;BME280;36740;48.698;11.472;2024-03-25T21:44:44;95834.56;;;3.20;77.83
50770;BME280;36740;48.698;11.472;2024-03-25T21:47:30;95821.75;;;3.60;75.22
50770;BME280;36740;48.698;11.472;2024-03-25T21:50:30;95875.50;;;3.44;76.73